createdAt,value
2023-04-15T00:00:10.298Z,95.50
2023-04-15T00:02:38.758Z,95.50
2023-04-15T00:05:07.690Z,95.50
2023-04-15T00:07:35.695Z,95.50
2023-04-15T00:10:04.479Z,95.50
2023-04-15T00:12:32.457Z,95.50
2023-04-15T00:15:00.475Z,95.50
2023-04-15T00:17:29.825Z,95.50
2023-04-15T00:19:59.857Z,95.50
2023-04-15T00:22:28.178Z,95.50
2023-04-15T00:24:56.435Z,95.50
2023-04-15T00:27:24.893Z,95.50
2023-04-15T00:29:53.017Z,95.50
2023-04-15T00:32:21.388Z,95.50
2023-04-15T00:34:50.971Z,95.50
2023-04-15T00:37:18.931Z,95.50
2023-04-15T00:39:46.904Z,95.50
2023-04-15T00:42:15.113Z,95.50
2023-04-15T00:44:43.465Z,95.50
2023-04-15T00:47:12.334Z,95.50
2023-04-15T00:49:40.310Z,95.50
2023-04-15T00:52:10.084Z,95.50
2023-04-15T00:54:38.249Z,95.50
2023-04-15T00:57:06.903Z,95.50
2023-04-15T00:59:35.580Z,95.50
2023-04-15T01:02:04.102Z,95.50
2023-04-15T01:04:33.119Z,95.50
2023-04-15T01:07:01.253Z,95.50
2023-04-15T01:09:30.669Z,95.50
2023-04-15T01:11:58.780Z,95.50
2023-04-15T01:14:26.887Z,95.50
2023-04-15T01:16:54.901Z,95.50
2023-04-15T01:19:23.024Z,95.50
2023-04-15T01:21:51.118Z,95.50
2023-04-15T01:24:21.235Z,95.50
2023-04-15T01:26:50.976Z,95.50
2023-04-15T01:29:19.379Z,95.50
2023-04-15T01:31:52.025Z,95.50
2023-04-15T01:34:38.663Z,95.50
2023-04-15T01:37:26.030Z,95.50
2023-04-15T01:39:54.037Z,95.50
2023-04-15T01:42:24.120Z,95.50
2023-04-15T01:44:53.695Z,95.50
2023-04-15T01:47:23.205Z,95.50
2023-04-15T01:49:52.660Z,95.50
2023-04-15T01:52:21.858Z,95.50
2023-04-15T01:54:51.300Z,95.50
2023-04-15T01:57:20.828Z,95.50
2023-04-15T01:59:51.645Z,95.50
2023-04-15T02:02:21.127Z,95.50
2023-04-15T02:04:50.394Z,95.50
2023-04-15T02:07:20.709Z,95.50
2023-04-15T02:09:49.947Z,95.50
2023-04-15T02:12:19.115Z,95.50
2023-04-15T02:14:48.324Z,95.50
2023-04-15T02:17:18.849Z,95.50
2023-04-15T02:19:48.184Z,95.50
2023-04-15T02:22:18.627Z,95.50
2023-04-15T02:24:48.363Z,95.50
2023-04-15T02:27:18.713Z,95.50
2023-04-15T02:29:47.928Z,95.50
2023-04-15T02:32:18.667Z,95.50
2023-04-15T02:34:47.949Z,95.50
2023-04-15T02:37:17.133Z,95.50
2023-04-15T02:39:46.567Z,95.50
2023-04-15T02:42:15.738Z,95.50
2023-04-15T02:44:44.993Z,95.50
2023-04-15T02:47:14.948Z,95.50
2023-04-15T02:49:45.459Z,95.50
2023-04-15T02:52:14.965Z,95.50
2023-04-15T02:54:44.186Z,95.50
2023-04-15T02:57:13.431Z,95.50
2023-04-15T02:59:42.650Z,95.50
2023-04-15T03:02:11.963Z,95.50
2023-04-15T03:04:41.404Z,95.50
2023-04-15T03:07:11.990Z,95.50
2023-04-15T03:09:41.416Z,95.50
2023-04-15T03:12:10.606Z,95.50
2023-04-15T03:14:39.791Z,95.50
2023-04-15T03:17:09.132Z,95.50
2023-04-15T03:19:38.394Z,95.50
2023-04-15T03:22:07.647Z,95.50
2023-04-15T03:24:38.235Z,95.50
2023-04-15T03:27:08.051Z,95.50
2023-04-15T03:29:37.327Z,95.50
2023-04-15T03:32:06.588Z,95.50
2023-04-15T03:34:36.122Z,95.50
2023-04-15T03:37:06.757Z,95.50
2023-04-15T03:39:35.968Z,95.50
2023-04-15T03:42:06.691Z,95.50
2023-04-15T03:44:36.229Z,95.50
2023-04-15T03:47:05.405Z,95.50
2023-04-15T03:49:34.647Z,95.50
2023-04-15T03:52:03.885Z,95.50
2023-04-15T03:54:33.110Z,95.50
2023-04-15T03:57:02.329Z,95.50
2023-04-15T03:59:32.887Z,95.50
2023-04-15T04:02:02.113Z,95.50
2023-04-15T04:04:31.693Z,95.50
2023-04-15T04:07:01.002Z,95.50
2023-04-15T04:09:30.183Z,95.50
2023-04-15T04:11:59.379Z,95.50
2023-04-15T04:14:29.788Z,95.50
2023-04-15T04:17:00.498Z,95.50
2023-04-15T04:19:29.986Z,95.50
2023-04-15T04:21:59.298Z,95.50
2023-04-15T04:24:28.807Z,95.50
2023-04-15T04:26:58.125Z,95.50
2023-04-15T04:29:27.350Z,95.50
2023-04-15T04:31:56.521Z,95.50
2023-04-15T04:34:27.440Z,95.50
2023-04-15T04:36:56.660Z,95.50
2023-04-15T04:39:25.947Z,95.50
2023-04-15T04:41:55.895Z,95.50
2023-04-15T04:44:25.223Z,95.50
2023-04-15T04:46:54.506Z,95.50
2023-04-15T04:49:23.820Z,95.50
2023-04-15T04:51:54.436Z,95.50
2023-04-15T04:54:23.711Z,95.50
2023-04-15T04:56:53.041Z,95.50
2023-04-15T05:01:52.059Z,95.50
2023-04-15T05:04:21.297Z,95.50
2023-04-15T05:06:50.507Z,95.50
2023-04-15T05:09:21.059Z,95.50
2023-04-15T05:11:50.436Z,95.50
2023-04-15T05:14:20.230Z,95.50
2023-04-15T05:16:50.342Z,95.50
2023-04-15T05:19:19.526Z,95.50
2023-04-15T05:21:48.825Z,95.50
2023-04-15T05:24:18.167Z,95.50
2023-04-15T05:26:48.773Z,95.50
2023-04-15T05:29:18.080Z,95.50
2023-04-15T05:31:47.278Z,95.50
2023-04-15T05:34:17.431Z,95.50
2023-04-15T05:36:46.693Z,95.50
2023-04-15T05:39:16.177Z,95.50
2023-04-15T05:41:45.669Z,95.50
2023-04-15T05:44:16.537Z,95.50
2023-04-15T05:46:45.725Z,95.50
2023-04-15T05:49:14.949Z,95.50
2023-04-15T05:51:44.165Z,95.50
2023-04-15T05:54:13.360Z,95.50
2023-04-15T05:56:42.593Z,95.50
2023-04-15T05:59:11.805Z,95.50
2023-04-15T06:01:42.870Z,95.50
2023-04-15T06:04:12.484Z,95.50
2023-04-15T06:06:42.002Z,95.50
2023-04-15T06:09:11.249Z,95.50
2023-04-15T06:11:41.315Z,95.50
2023-04-15T06:14:10.596Z,95.50
2023-04-15T06:16:39.897Z,95.50
2023-04-15T06:19:10.831Z,95.50
2023-04-15T06:21:40.110Z,95.50
2023-04-15T06:24:09.465Z,95.50
2023-04-15T06:26:38.795Z,95.50
2023-04-15T06:29:07.989Z,95.50
2023-04-15T06:31:37.404Z,95.50
2023-04-15T06:34:06.707Z,95.50
2023-04-15T06:36:37.283Z,95.50
2023-04-15T06:39:06.537Z,95.50
2023-04-15T06:41:35.903Z,95.50
2023-04-15T06:44:05.814Z,95.50
2023-04-15T06:46:35.024Z,95.50
2023-04-15T06:49:05.441Z,95.50
2023-04-15T06:51:37.388Z,95.50
2023-04-15T06:54:06.732Z,95.40
2023-04-15T06:56:36.052Z,94.90
2023-04-15T06:59:05.216Z,94.40
2023-04-15T07:01:34.414Z,93.90
2023-04-15T07:04:03.744Z,93.10
2023-04-15T07:06:33.832Z,91.60
2023-04-15T07:09:05.390Z,91.60
2023-04-15T07:11:34.957Z,90.50
2023-04-15T07:14:04.181Z,86.70
2023-04-15T07:16:33.343Z,82.70
2023-04-15T07:19:02.728Z,79.00
2023-04-15T07:21:32.495Z,75.90
2023-04-15T07:24:01.753Z,73.10
2023-04-15T07:26:32.407Z,71.80
2023-04-15T07:29:01.880Z,68.30
2023-04-15T07:31:31.326Z,67.80
2023-04-15T07:34:00.753Z,66.50
2023-04-15T07:36:30.258Z,66.70
2023-04-15T07:39:02.120Z,66.70
2023-04-15T07:41:32.946Z,67.70
2023-04-15T07:44:02.558Z,69.80
2023-04-15T07:46:31.860Z,72.20
2023-04-15T07:49:01.432Z,74.10
2023-04-15T07:51:32.357Z,75.60
2023-04-15T07:54:01.773Z,77.90
2023-04-15T07:56:32.566Z,77.90
2023-04-15T07:59:02.477Z,78.20
2023-04-15T08:01:32.909Z,79.00
2023-04-15T08:04:02.638Z,79.70
2023-04-15T08:06:32.922Z,79.80
2023-04-15T08:09:02.333Z,80.10
2023-04-15T08:11:33.239Z,79.40
2023-04-15T08:14:03.115Z,78.20
2023-04-15T08:16:32.716Z,76.90
2023-04-15T08:19:02.417Z,75.40
2023-04-15T08:21:31.815Z,73.40
2023-04-15T08:24:01.712Z,72.20
2023-04-15T08:26:32.361Z,70.80
2023-04-15T08:29:01.890Z,68.20
2023-04-15T08:31:31.717Z,67.70
2023-04-15T08:34:01.183Z,68.50
2023-04-15T08:36:30.699Z,69.20
2023-04-15T08:39:01.468Z,67.80
2023-04-15T08:41:40.659Z,66.70
2023-04-15T08:44:10.852Z,66.30
2023-04-15T08:46:40.157Z,64.80
2023-04-15T08:49:12.879Z,63.90
2023-04-15T08:51:42.863Z,64.90
2023-04-15T08:54:12.270Z,65.00
2023-04-15T08:56:43.541Z,64.00
2023-04-15T08:59:13.065Z,61.00
2023-04-15T09:01:43.175Z,59.50
2023-04-15T09:04:13.019Z,59.90
2023-04-15T09:06:42.400Z,59.60
2023-04-15T09:09:14.210Z,60.40
2023-04-15T09:11:44.856Z,60.70
2023-04-15T09:14:14.059Z,62.30
2023-04-15T09:16:59.733Z,60.90
2023-04-15T09:19:29.225Z,60.20
2023-04-15T09:22:00.162Z,60.70
2023-04-15T09:24:38.400Z,62.30
2023-04-15T09:27:09.054Z,64.80
2023-04-15T09:29:38.345Z,63.20
2023-04-15T09:32:14.836Z,62.90
2023-04-15T09:34:44.538Z,64.10
2023-04-15T09:37:31.276Z,64.80
2023-04-15T09:40:01.198Z,63.10
2023-04-15T09:42:32.511Z,64.60
2023-04-15T09:45:10.204Z,64.80
2023-04-15T09:47:39.595Z,66.00
2023-04-15T09:50:09.639Z,66.20
2023-04-15T09:52:43.763Z,65.90
2023-04-15T09:55:14.749Z,65.90
2023-04-15T09:57:47.135Z,66.70
2023-04-15T10:00:16.972Z,66.80
2023-04-15T10:02:48.725Z,66.90
2023-04-15T10:05:18.644Z,67.90
2023-04-15T10:07:48.333Z,68.70
2023-04-15T10:10:18.695Z,68.50
2023-04-15T10:12:50.913Z,69.00
2023-04-15T10:15:20.741Z,69.90
2023-04-15T10:17:51.984Z,67.80
2023-04-15T10:20:23.647Z,68.00
2023-04-15T10:22:53.981Z,67.60
2023-04-15T10:25:24.750Z,67.10
2023-04-15T10:27:56.464Z,66.80
2023-04-15T10:30:25.991Z,68.90
2023-04-15T10:32:56.579Z,68.00
2023-04-15T10:35:26.373Z,68.40
2023-04-15T10:37:55.689Z,67.00
2023-04-15T10:40:31.231Z,66.00
2023-04-15T10:43:03.208Z,67.30
2023-04-15T10:45:34.909Z,66.40
2023-04-15T10:48:06.048Z,65.60
2023-04-15T10:50:35.440Z,65.30
2023-04-15T10:53:05.731Z,65.90
2023-04-15T10:55:36.040Z,67.60
2023-04-15T10:58:07.677Z,67.90
2023-04-15T11:00:39.815Z,68.90
2023-04-15T11:03:10.218Z,68.00
2023-04-15T11:05:53.152Z,68.20
2023-04-15T11:08:55.448Z,69.80
2023-04-15T11:11:24.748Z,71.70
2023-04-15T11:13:57.906Z,71.60
2023-04-15T11:16:27.205Z,71.10
2023-04-15T11:18:56.813Z,71.20
2023-04-15T11:21:28.121Z,70.90
2023-04-15T11:23:57.703Z,69.30
2023-04-15T11:26:28.042Z,67.30
2023-04-15T11:28:59.852Z,66.90
2023-04-15T11:31:29.929Z,65.20
2023-04-15T11:34:01.616Z,63.80
2023-04-15T11:36:32.452Z,63.60
2023-04-15T11:39:01.858Z,63.60
2023-04-15T11:41:31.175Z,65.40
2023-04-15T11:44:01.936Z,66.20
2023-04-15T11:46:32.485Z,67.10
2023-04-15T11:49:02.295Z,69.20
2023-04-15T11:51:34.606Z,71.80
2023-04-15T11:54:03.609Z,75.20
2023-04-15T11:56:32.029Z,76.40
2023-04-15T11:59:02.102Z,74.80
2023-04-15T12:01:33.525Z,74.60
2023-04-15T12:04:02.720Z,74.30
2023-04-15T12:06:35.075Z,72.60
2023-04-15T12:09:09.677Z,71.80
2023-04-15T12:11:42.837Z,70.30
2023-04-15T12:14:17.137Z,68.60
2023-04-15T12:16:49.515Z,70.20
2023-04-15T12:19:24.266Z,68.60
2023-04-15T12:21:53.411Z,69.00
2023-04-15T12:24:23.695Z,68.70
2023-04-15T12:26:53.618Z,69.00
2023-04-15T12:29:29.308Z,69.00
2023-04-15T12:31:58.874Z,69.90
2023-04-15T12:34:32.011Z,73.80
2023-04-15T12:37:02.336Z,77.50
2023-04-15T12:39:32.624Z,81.50
2023-04-15T12:42:01.527Z,83.40
2023-04-15T12:44:31.000Z,85.80
2023-04-15T12:47:00.045Z,88.60
2023-04-15T12:49:29.192Z,91.70
2023-04-15T12:51:59.588Z,95.50
2023-04-15T12:54:27.973Z,95.50
2023-04-15T12:56:56.473Z,95.50
2023-04-15T12:59:24.932Z,95.50
2023-04-15T13:01:55.143Z,93.80
2023-04-15T13:04:23.651Z,92.30
2023-04-15T13:06:51.840Z,91.40
2023-04-15T13:09:19.931Z,87.60
2023-04-15T13:11:47.944Z,85.70
2023-04-15T13:14:15.954Z,82.70
2023-04-15T13:16:43.966Z,82.10
2023-04-15T13:19:13.378Z,81.10
2023-04-15T13:21:41.403Z,81.10
2023-04-15T13:24:09.749Z,81.00
2023-04-15T13:26:38.090Z,81.10
2023-04-15T13:29:06.729Z,77.80
2023-04-15T13:31:34.852Z,76.90
2023-04-15T13:34:03.056Z,77.20
2023-04-15T13:36:32.666Z,76.20
2023-04-15T13:39:00.967Z,76.40
2023-04-15T13:41:28.959Z,75.90
2023-04-15T13:43:58.380Z,74.60
2023-04-15T13:46:26.731Z,72.10
2023-04-15T13:48:54.823Z,71.30
2023-04-15T13:51:22.879Z,71.50
2023-04-15T13:53:52.207Z,69.90
2023-04-15T13:56:20.161Z,69.10
2023-04-15T13:58:48.353Z,68.40
2023-04-15T14:01:16.492Z,68.60
2023-04-15T14:03:44.801Z,68.80
2023-04-15T14:06:12.957Z,69.50
2023-04-15T14:08:41.082Z,68.90
2023-04-15T14:11:10.687Z,67.60
2023-04-15T14:13:38.681Z,68.40
2023-04-15T14:16:07.253Z,69.10
2023-04-15T14:18:35.310Z,70.60
2023-04-15T14:21:03.627Z,69.20
2023-04-15T14:23:31.659Z,68.40
2023-04-15T14:25:59.646Z,67.80
2023-04-15T14:28:29.076Z,67.80
2023-04-15T14:30:57.155Z,68.10
2023-04-15T14:33:25.269Z,68.70
2023-04-15T14:35:53.351Z,69.00
2023-04-15T14:38:22.722Z,69.50
2023-04-15T14:40:50.985Z,69.90
2023-04-15T14:43:19.081Z,70.40
2023-04-15T14:45:48.596Z,70.90
2023-04-15T14:48:17.373Z,71.30
2023-04-15T14:50:45.507Z,71.90
2023-04-15T14:53:13.837Z,72.30
2023-04-15T14:55:42.464Z,73.40
2023-04-15T14:58:10.639Z,74.00
2023-04-15T15:00:41.966Z,74.70
2023-04-15T15:03:13.640Z,75.40
2023-04-15T15:05:42.573Z,75.80
2023-04-15T15:08:11.176Z,76.70
2023-04-15T15:10:48.264Z,77.60
2023-04-15T15:13:18.870Z,78.30
2023-04-15T15:15:49.260Z,79.10
2023-04-15T15:18:19.857Z,79.40
2023-04-15T15:20:48.259Z,80.30
2023-04-15T15:23:16.518Z,81.10
2023-04-15T15:25:44.947Z,81.40
2023-04-15T15:28:13.184Z,81.80
2023-04-15T15:30:41.438Z,81.90
2023-04-15T15:33:09.507Z,82.60
2023-04-15T15:35:39.052Z,81.60
2023-04-15T15:38:07.147Z,82.40
2023-04-15T15:40:35.370Z,82.90
2023-04-15T15:43:03.551Z,83.60
2023-04-15T15:45:31.744Z,84.10
2023-04-15T15:48:00.210Z,83.70
2023-04-15T15:50:28.427Z,83.10
2023-04-15T15:52:58.645Z,83.20
2023-04-15T15:55:29.870Z,82.00
2023-04-15T15:57:57.994Z,82.30
2023-04-15T16:00:26.363Z,82.40
2023-04-15T16:03:06.805Z,81.90
2023-04-15T16:05:35.782Z,81.40
2023-04-15T16:08:05.580Z,82.10
2023-04-15T16:10:33.701Z,82.00
2023-04-15T16:13:02.063Z,82.00
2023-04-15T16:15:30.296Z,82.30
2023-04-15T16:17:59.389Z,84.80
2023-04-15T16:20:28.373Z,87.20
2023-04-15T16:22:58.154Z,89.50
2023-04-15T16:25:27.791Z,90.90
2023-04-15T16:28:05.481Z,94.10
2023-04-15T16:30:46.897Z,95.50
2023-04-15T16:33:15.533Z,95.50
2023-04-15T16:35:43.541Z,95.50
2023-04-15T16:38:11.744Z,95.50
2023-04-15T16:40:41.247Z,95.50
2023-04-15T16:43:11.230Z,95.50
2023-04-15T16:45:39.306Z,95.50
2023-04-15T16:48:08.025Z,95.50
2023-04-15T16:50:37.682Z,95.50
2023-04-15T16:53:05.728Z,95.50
2023-04-15T16:55:33.696Z,95.50
2023-04-15T16:58:04.325Z,95.50
2023-04-15T17:00:36.156Z,95.50
2023-04-15T17:03:04.847Z,95.50
2023-04-15T17:05:33.018Z,95.50
2023-04-15T17:08:01.144Z,95.50
2023-04-15T17:10:29.285Z,95.50
2023-04-15T17:12:58.084Z,95.50
2023-04-15T17:15:28.161Z,95.50
2023-04-15T17:18:12.114Z,95.50
2023-04-15T17:20:42.381Z,95.50
2023-04-15T17:23:10.532Z,95.50
2023-04-15T17:25:38.771Z,95.50
2023-04-15T17:28:07.212Z,95.50
2023-04-15T17:30:37.343Z,95.50
2023-04-15T17:33:56.123Z,95.50
2023-04-15T17:36:33.355Z,95.50
2023-04-15T17:39:21.451Z,95.50
2023-04-15T17:42:11.226Z,95.50
2023-04-15T17:44:59.319Z,95.50
2023-04-15T17:47:49.236Z,95.50
2023-04-15T17:50:38.434Z,95.50
2023-04-15T17:53:26.558Z,95.50
2023-04-15T17:56:14.614Z,95.50
2023-04-15T17:59:03.482Z,95.50
2023-04-15T18:01:51.618Z,95.50
2023-04-15T18:04:41.517Z,95.50
2023-04-15T18:07:29.817Z,95.50
2023-04-15T18:10:17.872Z,95.50
2023-04-15T18:13:06.382Z,95.50
2023-04-15T18:15:54.474Z,95.50
2023-04-15T18:18:42.527Z,95.50
2023-04-15T18:21:13.604Z,95.50
2023-04-15T18:23:42.233Z,95.50
2023-04-15T18:26:10.356Z,95.50
2023-04-15T18:28:39.745Z,95.50
2023-04-15T18:31:08.011Z,95.50
2023-04-15T18:33:36.462Z,95.50
2023-04-15T18:36:04.623Z,95.50
2023-04-15T18:38:34.026Z,95.50
2023-04-15T18:41:02.147Z,95.50
2023-04-15T18:43:30.242Z,95.50
2023-04-15T18:45:58.439Z,95.50
2023-04-15T18:48:27.374Z,95.50
2023-04-15T18:50:58.297Z,95.50
2023-04-15T18:53:27.065Z,95.50
2023-04-15T18:55:56.760Z,95.50
2023-04-15T18:58:24.851Z,95.50
2023-04-15T19:00:53.132Z,95.50
2023-04-15T19:03:21.317Z,95.50
2023-04-15T19:05:49.472Z,95.50
2023-04-15T19:08:17.808Z,95.50
2023-04-15T19:10:46.100Z,95.50
2023-04-15T19:13:17.135Z,95.50
2023-04-15T19:15:46.752Z,95.50
2023-04-15T19:18:14.961Z,95.50
2023-04-15T19:20:43.175Z,95.50
2023-04-15T19:23:11.941Z,95.50
2023-04-15T19:25:40.302Z,95.50
2023-04-15T19:28:08.421Z,95.50
2023-04-15T19:30:38.009Z,95.50
2023-04-15T19:33:06.340Z,95.50
2023-04-15T19:35:34.403Z,95.50
2023-04-15T19:38:02.580Z,95.50
2023-04-15T19:40:30.777Z,95.50
2023-04-15T19:42:58.894Z,95.50
2023-04-15T19:45:27.199Z,95.50
2023-04-15T19:47:56.623Z,95.50
2023-04-15T19:50:26.397Z,95.50
2023-04-15T19:52:54.801Z,95.50
2023-04-15T19:55:22.888Z,95.50
2023-04-15T19:57:51.217Z,95.50
2023-04-15T20:00:19.421Z,95.50
2023-04-15T20:02:47.733Z,95.50
2023-04-15T20:05:17.250Z,95.50
2023-04-15T20:07:48.288Z,95.50
2023-04-15T20:10:16.331Z,95.50
2023-04-15T20:12:51.087Z,95.50
2023-04-15T20:15:22.676Z,95.50
2023-04-15T20:17:50.926Z,95.50
2023-04-15T20:20:20.878Z,95.50
2023-04-15T20:22:49.020Z,95.50
2023-04-15T20:25:17.018Z,95.50
2023-04-15T20:27:45.717Z,95.50
2023-04-15T20:30:13.911Z,95.50
2023-04-15T20:32:41.891Z,95.50
2023-04-15T20:35:10.488Z,95.50
2023-04-15T20:37:40.483Z,95.50
2023-04-15T20:40:09.758Z,95.50
2023-04-15T20:42:37.908Z,95.50
2023-04-15T20:45:07.129Z,95.50
2023-04-15T20:47:35.163Z,95.50
2023-04-15T20:50:03.494Z,95.50
2023-04-15T20:52:31.489Z,95.50
2023-04-15T20:55:01.092Z,95.50
2023-04-15T20:57:30.145Z,95.50
2023-04-15T20:59:58.154Z,95.50
2023-04-15T21:02:26.694Z,95.50
2023-04-15T21:04:54.764Z,95.50
2023-04-15T21:07:22.989Z,95.50
2023-04-15T21:09:51.122Z,95.50
2023-04-15T21:12:20.486Z,95.50
2023-04-15T21:14:48.652Z,95.50
2023-04-15T21:17:16.789Z,95.50
2023-04-15T21:19:44.792Z,95.50
2023-04-15T21:22:12.801Z,95.50
2023-04-15T21:24:40.838Z,95.50
2023-04-15T21:27:08.876Z,95.50
2023-04-15T21:29:40.250Z,95.50
2023-04-15T21:32:08.421Z,95.50
2023-04-15T21:34:36.594Z,95.50
2023-04-15T21:37:04.807Z,95.50
2023-04-15T21:39:33.743Z,95.50
2023-04-15T21:42:02.733Z,95.50
2023-04-15T21:44:30.914Z,95.50
2023-04-15T21:47:00.386Z,95.50
2023-04-15T21:49:28.648Z,95.50
2023-04-15T21:52:00.939Z,95.50
2023-04-15T21:54:29.148Z,95.50
2023-04-15T21:56:57.354Z,95.50
2023-04-15T21:59:26.157Z,95.50
2023-04-15T22:01:54.269Z,95.50
2023-04-15T22:04:24.048Z,95.50
2023-04-15T22:06:55.536Z,95.50
2023-04-15T22:09:23.627Z,95.50
2023-04-15T22:11:51.638Z,95.50
2023-04-15T22:14:19.657Z,95.50
2023-04-15T22:16:47.691Z,95.50
2023-04-15T22:19:15.686Z,95.50
2023-04-15T22:21:45.140Z,95.50
2023-04-15T22:24:38.565Z,95.50
2023-04-15T22:27:03.576Z,95.50
2023-04-15T22:29:31.599Z,95.50
2023-04-15T22:31:59.621Z,95.50
2023-04-15T22:34:27.708Z,95.50
2023-04-15T22:36:57.021Z,95.50
2023-04-15T22:39:25.224Z,95.50
2023-04-15T22:41:53.274Z,95.50
2023-04-15T22:44:21.289Z,95.50
2023-04-15T22:46:52.063Z,95.50
2023-04-15T22:49:20.169Z,95.50
2023-04-15T22:51:48.215Z,95.50
2023-04-15T22:54:17.551Z,95.50
2023-04-15T22:56:45.566Z,95.50
2023-04-15T22:59:13.580Z,95.50
2023-04-15T23:01:41.694Z,95.50
2023-04-15T23:04:10.337Z,95.50
2023-04-15T23:06:51.135Z,95.50
2023-04-15T23:09:20.975Z,95.50
2023-04-15T23:11:49.048Z,95.50
2023-04-15T23:14:17.095Z,95.50
2023-04-15T23:16:45.563Z,95.50
2023-04-15T23:19:13.556Z,95.50
2023-04-15T23:21:41.664Z,95.50
2023-04-15T23:24:09.774Z,95.50
2023-04-15T23:26:39.119Z,95.50
2023-04-15T23:29:07.382Z,95.50
2023-04-15T23:31:35.752Z,95.50
2023-04-15T23:34:04.073Z,95.50
2023-04-15T23:36:32.772Z,95.50
2023-04-15T23:39:00.972Z,95.50
2023-04-15T23:41:29.029Z,95.50
2023-04-15T23:43:58.453Z,95.50
2023-04-15T23:46:27.197Z,95.50
2023-04-15T23:48:55.419Z,95.50
2023-04-15T23:51:23.439Z,95.50
2023-04-15T23:53:52.369Z,95.50
2023-04-15T23:56:20.808Z,95.50
2023-04-15T23:58:48.930Z,95.50
